createdAt,value
2018-11-23T00:00:46.672Z,40.83
2018-11-23T00:03:15.935Z,40.00
2018-11-23T00:05:45.445Z,39.40
2018-11-23T00:08:14.578Z,39.43
2018-11-23T00:10:43.862Z,40.90
2018-11-23T00:13:13.182Z,41.40
2018-11-23T00:15:42.233Z,40.27
2018-11-23T00:18:12.068Z,40.97
2018-11-23T00:20:42.344Z,40.83
2018-11-23T00:23:11.389Z,38.63
2018-11-23T00:25:40.604Z,42.30
2018-11-23T00:28:09.653Z,41.07
2018-11-23T00:30:38.852Z,38.50
2018-11-23T00:33:08.048Z,40.07
2018-11-23T00:35:37.299Z,38.57
2018-11-23T00:38:06.540Z,39.53
2018-11-23T00:40:35.846Z,39.20
2018-11-23T00:43:05.311Z,38.47
2018-11-23T00:45:35.731Z,37.23
2018-11-23T00:48:04.149Z,37.83
2018-11-23T00:50:33.240Z,39.13
2018-11-23T00:53:03.228Z,39.90
2018-11-23T00:55:32.383Z,39.33
2018-11-23T00:58:01.442Z,39.37
2018-11-23T01:00:31.873Z,38.37
2018-11-23T01:03:02.095Z,39.60
2018-11-23T01:05:31.154Z,38.53
2018-11-23T01:08:00.238Z,39.67
2018-11-23T01:10:30.491Z,41.03
2018-11-23T01:12:59.808Z,40.07
2018-11-23T01:15:28.963Z,40.07
2018-11-23T01:17:58.273Z,40.40
2018-11-23T01:20:28.345Z,39.93
2018-11-23T01:22:58.082Z,40.80
2018-11-23T01:25:27.842Z,38.97
2018-11-23T01:27:57.552Z,40.30
2018-11-23T01:30:32.611Z,40.97
2018-11-23T01:33:02.264Z,41.30
2018-11-23T01:35:31.495Z,42.00
2018-11-23T01:38:00.763Z,41.20
2018-11-23T01:40:30.848Z,40.03
2018-11-23T01:43:00.572Z,40.07
2018-11-23T01:45:29.758Z,41.83
2018-11-23T01:47:59.724Z,43.20
2018-11-23T01:50:30.078Z,42.87
2018-11-23T01:52:59.887Z,42.10
2018-11-23T01:55:29.520Z,39.70
2018-11-23T01:57:58.829Z,37.70
2018-11-23T02:00:29.315Z,38.47
2018-11-23T02:02:58.749Z,37.07
2018-11-23T02:05:27.897Z,37.83
2018-11-23T02:07:57.079Z,38.40
2018-11-23T02:10:26.148Z,37.37
2018-11-23T02:12:56.071Z,38.07
2018-11-23T02:15:25.400Z,39.33
2018-11-23T02:17:55.237Z,38.07
2018-11-23T02:20:24.292Z,37.83
2018-11-23T02:22:53.491Z,38.60
2018-11-23T02:25:22.916Z,37.27
2018-11-23T02:27:52.706Z,38.23
2018-11-23T02:30:23.286Z,38.27
2018-11-23T02:32:52.440Z,39.33
2018-11-23T02:35:21.505Z,39.67
2018-11-23T02:37:51.446Z,37.93
2018-11-23T02:40:22.044Z,39.43
2018-11-23T02:42:51.337Z,38.03
2018-11-23T02:45:21.743Z,37.47
2018-11-23T02:47:51.602Z,37.03
2018-11-23T02:50:20.770Z,37.70
2018-11-23T02:52:50.697Z,36.50
2018-11-23T02:55:20.379Z,35.83
2018-11-23T02:57:49.520Z,38.40
2018-11-23T03:00:20.100Z,36.37
2018-11-23T03:02:49.212Z,36.53
2018-11-23T03:05:20.080Z,36.67
2018-11-23T03:07:49.348Z,38.00
2018-11-23T03:10:18.634Z,37.30
2018-11-23T03:12:48.448Z,36.77
2018-11-23T03:15:18.928Z,37.27
2018-11-23T03:17:48.725Z,36.97
2018-11-23T03:20:19.215Z,37.93
2018-11-23T03:22:48.352Z,36.73
2018-11-23T03:25:17.497Z,38.00
2018-11-23T03:27:46.724Z,36.60
2018-11-23T03:30:18.080Z,34.10
2018-11-23T03:32:54.192Z,36.40
2018-11-23T03:35:23.838Z,36.47
2018-11-23T03:37:52.977Z,36.67
2018-11-23T03:40:22.298Z,36.97
2018-11-23T03:42:51.481Z,36.70
2018-11-23T03:45:20.538Z,34.93
2018-11-23T03:47:49.713Z,34.97
2018-11-23T03:50:19.233Z,35.53
2018-11-23T03:52:48.455Z,35.50
2018-11-23T03:55:17.632Z,35.97
2018-11-23T03:57:47.522Z,34.67
2018-11-23T04:00:18.789Z,33.87
2018-11-23T04:02:48.487Z,34.83
2018-11-23T04:05:17.911Z,33.20
2018-11-23T04:07:47.406Z,33.13
2018-11-23T04:10:17.139Z,34.90
2018-11-23T04:12:46.713Z,32.87
2018-11-23T04:15:16.247Z,34.83
2018-11-23T04:17:45.307Z,33.57
2018-11-23T04:20:15.753Z,33.43
2018-11-23T04:22:44.957Z,34.27
2018-11-23T04:25:14.766Z,32.83
2018-11-23T04:27:44.256Z,34.43
2018-11-23T04:30:14.995Z,32.63
2018-11-23T04:32:44.902Z,33.50
2018-11-23T04:35:15.453Z,30.93
2018-11-23T04:37:45.252Z,30.73
2018-11-23T04:40:15.034Z,32.00
2018-11-23T04:42:44.559Z,32.73
2018-11-23T04:45:14.080Z,31.23
2018-11-23T04:47:43.182Z,32.13
2018-11-23T04:50:14.084Z,32.00
2018-11-23T04:52:43.599Z,29.90
2018-11-23T04:55:13.019Z,32.17
2018-11-23T04:57:42.829Z,31.67
2018-11-23T05:00:16.752Z,30.80
2018-11-23T05:02:47.601Z,31.63
2018-11-23T05:05:16.953Z,32.10
2018-11-23T05:07:47.214Z,32.67
2018-11-23T05:10:18.225Z,30.87
2018-11-23T05:12:47.432Z,29.17
2018-11-23T05:15:18.380Z,32.77
2018-11-23T05:17:48.099Z,32.80
2018-11-23T05:20:17.391Z,32.97
2018-11-23T05:22:46.688Z,32.00
2018-11-23T05:25:17.220Z,32.93
2018-11-23T05:27:46.674Z,32.47
2018-11-23T05:30:17.929Z,32.53
2018-11-23T05:32:47.065Z,35.00
2018-11-23T05:35:17.111Z,33.67
2018-11-23T05:37:46.462Z,35.70
2018-11-23T05:40:17.968Z,34.27
2018-11-23T05:42:47.147Z,35.47
2018-11-23T05:45:18.090Z,34.57
2018-11-23T05:47:47.804Z,34.33
2018-11-23T05:50:18.416Z,35.27
2018-11-23T05:52:47.626Z,35.87
2018-11-23T05:55:17.119Z,32.03
2018-11-23T05:57:46.182Z,33.83
2018-11-23T06:00:18.134Z,35.67
2018-11-23T06:02:47.332Z,35.17
2018-11-23T06:05:16.573Z,34.50
2018-11-23T06:07:46.497Z,35.27
2018-11-23T06:10:16.819Z,35.90
2018-11-23T06:12:46.540Z,36.97
2018-11-23T06:15:17.887Z,38.23
2018-11-23T06:17:47.900Z,35.37
2018-11-23T06:20:19.241Z,35.40
2018-11-23T06:22:49.456Z,35.13
2018-11-23T06:26:27.429Z,36.03
2018-11-23T06:28:56.638Z,32.93
2018-11-23T06:31:25.838Z,34.13
2018-11-23T06:33:55.177Z,33.70
2018-11-23T06:36:24.579Z,34.43
2018-11-23T06:38:53.892Z,33.30
2018-11-23T06:41:24.094Z,34.23
2018-11-23T06:43:53.292Z,34.57
2018-11-23T06:46:22.493Z,35.43
2018-11-23T06:48:51.775Z,35.10
2018-11-23T06:51:20.925Z,35.40
2018-11-23T06:53:50.104Z,35.90
2018-11-23T06:56:20.328Z,35.97
2018-11-23T06:58:49.543Z,37.20
2018-11-23T07:01:18.770Z,36.90
2018-11-23T07:03:47.847Z,36.63
2018-11-23T07:06:17.196Z,34.77
2018-11-23T07:08:52.285Z,36.93
2018-11-23T07:11:15.731Z,35.07
2018-11-23T07:13:44.982Z,35.93
2018-11-23T07:16:14.164Z,33.67
2018-11-23T07:18:43.459Z,32.90
2018-11-23T07:21:13.497Z,34.70
2018-11-23T07:23:43.778Z,34.67
2018-11-23T07:26:12.961Z,34.47
2018-11-23T07:28:42.733Z,33.63
2018-11-23T07:31:11.964Z,31.43
2018-11-23T07:33:41.745Z,31.40
2018-11-23T07:36:11.521Z,32.27
2018-11-23T07:38:40.705Z,32.23
2018-11-23T07:41:21.218Z,32.80
2018-11-23T07:43:50.490Z,33.57
2018-11-23T07:46:19.792Z,29.47
2018-11-23T07:48:49.038Z,30.30
2018-11-23T07:51:18.198Z,31.00
2018-11-23T07:53:47.447Z,31.97
2018-11-23T07:56:16.642Z,31.97
2018-11-23T07:58:46.653Z,31.93
2018-11-23T08:01:15.828Z,33.07
2018-11-23T08:03:44.966Z,32.97
2018-11-23T08:06:14.241Z,34.77
2018-11-23T08:08:43.502Z,35.73
2018-11-23T08:11:12.672Z,34.33
2018-11-23T08:13:41.945Z,34.47
2018-11-23T08:16:11.296Z,35.27
2018-11-23T08:18:40.981Z,33.40
2018-11-23T08:21:10.837Z,35.87
2018-11-23T08:23:40.069Z,35.43
2018-11-23T08:26:09.391Z,33.47
2018-11-23T08:28:39.784Z,34.30
2018-11-23T08:31:09.532Z,32.80
2018-11-23T08:33:38.712Z,33.37
2018-11-23T08:36:07.850Z,31.70
2018-11-23T08:38:37.222Z,32.63
2018-11-23T08:41:06.486Z,33.20
2018-11-23T08:43:36.198Z,31.73
2018-11-23T08:46:05.704Z,32.70
2018-11-23T08:48:41.521Z,33.90
2018-11-23T08:51:10.596Z,35.30
2018-11-23T08:53:39.881Z,35.80
2018-11-23T08:56:09.073Z,35.70
2018-11-23T08:58:38.164Z,34.23
2018-11-23T09:01:07.523Z,33.53
2018-11-23T09:03:37.203Z,34.33
2018-11-23T09:06:06.252Z,33.17
2018-11-23T09:08:36.586Z,32.43
2018-11-23T09:11:06.689Z,32.00
2018-11-23T09:13:36.095Z,32.90
2018-11-23T09:16:06.178Z,31.90
2018-11-23T09:18:35.478Z,32.53
2018-11-23T09:21:04.659Z,33.87
2018-11-23T09:23:33.823Z,30.87
2018-11-23T09:26:02.997Z,29.13
2018-11-23T09:28:32.176Z,30.27
2018-11-23T09:31:01.546Z,28.77
2018-11-23T09:33:30.676Z,28.67
2018-11-23T09:35:59.790Z,28.30
2018-11-23T09:38:29.291Z,28.27
2018-11-23T09:40:58.432Z,27.80
2018-11-23T09:43:27.631Z,26.77
2018-11-23T09:45:56.893Z,29.67
2018-11-23T09:48:25.998Z,29.47
2018-11-23T09:50:55.729Z,29.67
2018-11-23T09:53:25.179Z,30.77
2018-11-23T09:55:54.181Z,29.67
2018-11-23T09:58:24.052Z,28.97
2018-11-23T10:00:53.238Z,29.57
2018-11-23T10:03:22.436Z,28.93
2018-11-23T10:05:51.631Z,28.40
2018-11-23T10:08:20.852Z,29.30
2018-11-23T10:10:49.889Z,28.70
2018-11-23T10:13:20.452Z,29.07
2018-11-23T10:15:49.564Z,28.90
2018-11-23T10:18:18.813Z,27.27
2018-11-23T10:20:47.932Z,27.33
2018-11-23T10:23:17.088Z,28.23
2018-11-23T10:25:46.190Z,27.97
2018-11-23T10:28:15.265Z,28.10
2018-11-23T10:30:44.450Z,28.23
2018-11-23T10:33:13.547Z,29.37
2018-11-23T10:35:42.639Z,27.77
2018-11-23T10:38:11.716Z,27.03
2018-11-23T10:40:41.536Z,27.13
2018-11-23T10:43:11.863Z,27.63
2018-11-23T10:45:42.023Z,27.23
2018-11-23T10:48:11.924Z,26.17
2018-11-23T10:50:42.648Z,25.30
2018-11-23T10:53:13.477Z,25.27
2018-11-23T10:55:42.958Z,24.47
2018-11-23T10:58:12.160Z,27.83
2018-11-23T11:00:46.682Z,26.37
2018-11-23T11:03:34.881Z,25.50
2018-11-23T11:06:13.279Z,24.30
2018-11-23T11:08:42.748Z,24.50
2018-11-23T11:11:13.806Z,24.83
2018-11-23T11:13:41.561Z,30.50
2018-11-23T11:16:10.695Z,30.27
2018-11-23T11:18:39.968Z,24.43
2018-11-23T11:21:09.042Z,23.97
2018-11-23T11:23:38.201Z,23.63
2018-11-23T11:26:07.382Z,23.93
2018-11-23T11:28:37.183Z,23.93
2018-11-23T11:31:07.195Z,23.20
2018-11-23T11:33:36.347Z,22.67
2018-11-23T11:36:05.730Z,22.63
2018-11-23T11:38:34.812Z,21.27
2018-11-23T11:41:03.963Z,20.73
2018-11-23T11:43:33.159Z,20.70
2018-11-23T11:46:02.387Z,20.73
2018-11-23T11:48:32.217Z,21.27
2018-11-23T11:51:02.096Z,20.20
2018-11-23T11:53:31.856Z,21.17
2018-11-23T11:56:01.220Z,21.03
2018-11-23T11:58:30.797Z,22.13
2018-11-23T12:01:01.196Z,21.30
2018-11-23T12:03:30.530Z,21.73
2018-11-23T12:05:59.744Z,20.23
2018-11-23T12:08:29.042Z,22.10
2018-11-23T12:10:58.497Z,22.27
2018-11-23T12:13:28.342Z,21.90
2018-11-23T12:15:58.113Z,20.97
2018-11-23T12:18:27.833Z,20.87
2018-11-23T12:20:57.956Z,20.60
2018-11-23T12:23:27.655Z,22.93
2018-11-23T12:25:57.027Z,19.87
2018-11-23T12:28:27.325Z,21.87
2018-11-23T12:30:57.482Z,22.60
2018-11-23T12:33:26.925Z,22.60
2018-11-23T12:35:56.655Z,23.73
2018-11-23T12:38:25.782Z,21.93
2018-11-23T12:40:55.051Z,22.87
2018-11-23T12:43:24.160Z,23.00
2018-11-23T12:45:53.484Z,21.97
2018-11-23T12:48:25.345Z,21.27
2018-11-23T12:50:54.548Z,22.03
2018-11-23T12:53:24.096Z,21.93
2018-11-23T12:55:54.332Z,21.23
2018-11-23T12:58:23.633Z,21.93
2018-11-23T13:00:53.465Z,21.63
2018-11-23T13:03:22.712Z,22.53
2018-11-23T13:05:51.854Z,21.67
2018-11-23T13:08:20.969Z,21.07
2018-11-23T13:10:50.035Z,21.07
2018-11-23T13:13:19.261Z,21.20
2018-11-23T13:15:48.460Z,22.97
2018-11-23T13:18:17.657Z,22.43
2018-11-23T13:20:46.969Z,22.83
2018-11-23T13:23:16.130Z,22.70
2018-11-23T13:25:46.050Z,22.50
2018-11-23T13:28:15.513Z,21.67
2018-11-23T13:30:44.855Z,22.50
2018-11-23T13:33:13.924Z,22.83
2018-11-23T13:35:44.531Z,22.50
2018-11-23T13:38:13.824Z,24.00
2018-11-23T13:40:43.088Z,22.00
2018-11-23T13:43:12.154Z,21.97
2018-11-23T13:45:41.933Z,21.80
2018-11-23T13:48:11.688Z,22.17
2018-11-23T13:50:40.805Z,22.13
2018-11-23T13:53:10.116Z,20.93
2018-11-23T13:55:39.207Z,21.13
2018-11-23T13:58:08.511Z,21.23
2018-11-23T14:00:37.564Z,21.23
2018-11-23T14:03:06.698Z,24.37
2018-11-23T14:05:36.537Z,22.30
2018-11-23T14:08:06.059Z,20.27
2018-11-23T14:10:35.301Z,21.07
2018-11-23T14:13:11.311Z,20.47
2018-11-23T14:15:35.327Z,21.63
2018-11-23T14:18:04.489Z,20.37
2018-11-23T14:20:33.794Z,20.83
2018-11-23T14:23:03.004Z,20.33
2018-11-23T14:25:32.443Z,20.33
2018-11-23T14:28:01.603Z,20.10
2018-11-23T14:30:32.144Z,20.00
2018-11-23T14:33:02.009Z,19.30
2018-11-23T14:35:32.233Z,19.20
2018-11-23T14:38:02.144Z,20.60
2018-11-23T14:40:31.231Z,23.10
2018-11-23T14:43:00.436Z,20.37
2018-11-23T14:45:32.822Z,20.30
2018-11-23T14:48:05.204Z,20.43
2018-11-23T14:50:35.632Z,21.57
2018-11-23T14:53:04.699Z,19.77
2018-11-23T14:55:33.834Z,19.50
2018-11-23T14:58:02.884Z,19.40
2018-11-23T15:00:35.800Z,19.27
2018-11-23T15:03:05.968Z,19.67
2018-11-23T15:05:36.433Z,19.27
2018-11-23T15:08:05.925Z,18.03
2018-11-23T15:10:35.869Z,18.27
2018-11-23T15:13:06.095Z,18.07
2018-11-23T15:15:37.909Z,18.83
2018-11-23T15:18:08.072Z,18.60
2018-11-23T15:20:39.468Z,18.97
2018-11-23T15:23:10.182Z,18.17
2018-11-23T15:25:39.336Z,19.47
2018-11-23T15:28:10.371Z,19.73
2018-11-23T15:30:40.710Z,20.23
2018-11-23T15:33:11.666Z,20.73
2018-11-23T15:35:41.760Z,20.10
2018-11-23T15:38:12.835Z,20.70
2018-11-23T15:40:42.256Z,20.30
2018-11-23T15:43:12.842Z,20.30
2018-11-23T15:45:42.023Z,20.50
2018-11-23T15:48:11.828Z,20.60
2018-11-23T15:50:42.290Z,21.37
2018-11-23T15:53:13.092Z,22.70
2018-11-23T15:55:42.613Z,23.73
2018-11-23T15:58:13.160Z,23.50
2018-11-23T16:00:43.717Z,26.30
2018-11-23T16:03:14.219Z,28.67
2018-11-23T16:05:43.558Z,31.67
2018-11-23T16:08:14.420Z,27.80
2018-11-23T16:10:45.176Z,30.50
2018-11-23T16:13:14.263Z,26.10
2018-11-23T16:15:44.185Z,26.27
2018-11-23T16:18:14.240Z,24.27
2018-11-23T16:20:44.755Z,25.33
2018-11-23T16:23:16.175Z,27.30
2018-11-23T16:25:46.412Z,26.50
2018-11-23T16:28:15.658Z,26.63
2018-11-23T16:30:47.262Z,24.70
2018-11-23T16:33:18.575Z,25.50
2018-11-23T16:35:48.431Z,25.60
2018-11-23T16:38:19.871Z,24.70
2018-11-23T16:40:51.355Z,25.33
2018-11-23T16:43:20.625Z,24.97
2018-11-23T16:45:49.762Z,25.03
2018-11-23T16:48:20.070Z,24.90
2018-11-23T16:50:49.366Z,25.10
2018-11-23T16:53:19.451Z,25.67
2018-11-23T16:55:48.553Z,25.63
2018-11-23T16:58:17.722Z,24.47
2018-11-23T17:00:48.203Z,24.77
2018-11-23T17:03:19.137Z,30.43
2018-11-23T17:05:50.678Z,48.57
2018-11-23T17:08:20.405Z,59.50
2018-11-23T17:10:50.296Z,71.30
2018-11-23T17:13:19.498Z,53.53
2018-11-23T17:15:48.897Z,33.70
2018-11-23T17:18:18.098Z,27.47
2018-11-23T17:20:47.301Z,30.00
2018-11-23T17:23:16.753Z,28.07
2018-11-23T17:25:45.892Z,25.93
2018-11-23T17:28:15.095Z,25.53
2018-11-23T17:30:44.195Z,25.60
2018-11-23T17:33:13.379Z,26.50
2018-11-23T17:35:42.695Z,26.73
2018-11-23T17:38:11.895Z,27.13
2018-11-23T17:40:44.021Z,27.07
2018-11-23T17:43:13.158Z,27.83
2018-11-23T17:45:42.452Z,28.53
2018-11-23T17:48:11.524Z,28.30
2018-11-23T17:50:41.078Z,27.30
2018-11-23T17:53:11.019Z,29.23
2018-11-23T17:55:40.136Z,27.00
2018-11-23T17:58:09.437Z,27.00
2018-11-23T18:00:39.695Z,26.67
2018-11-23T18:03:08.853Z,28.63
2018-11-23T18:05:38.099Z,27.47
2018-11-23T18:08:07.718Z,28.87
2018-11-23T18:10:37.199Z,28.30
2018-11-23T18:13:06.311Z,26.97
2018-11-23T18:15:36.016Z,28.80
2018-11-23T18:18:06.269Z,29.33
2018-11-23T18:20:35.956Z,32.20
2018-11-23T18:23:06.157Z,31.33
2018-11-23T18:25:37.067Z,31.00
2018-11-23T18:28:06.956Z,32.70
2018-11-23T18:30:36.118Z,39.03
2018-11-23T18:33:08.531Z,38.30
2018-11-23T18:35:37.705Z,32.60
2018-11-23T18:38:06.865Z,30.80
2018-11-23T18:40:37.561Z,31.43
2018-11-23T18:43:06.193Z,29.93
2018-11-23T18:45:35.537Z,30.00
2018-11-23T18:48:04.860Z,31.90
2018-11-23T18:50:34.081Z,30.80
2018-11-23T18:53:03.231Z,29.77
2018-11-23T18:55:32.413Z,30.77
2018-11-23T18:58:01.567Z,29.93
2018-11-23T19:00:30.829Z,31.40
2018-11-23T19:03:00.216Z,32.40
2018-11-23T19:05:30.211Z,33.13
2018-11-23T19:08:00.320Z,32.37
2018-11-23T19:10:29.411Z,32.17
2018-11-23T19:12:58.662Z,30.50
2018-11-23T19:15:27.947Z,32.87
2018-11-23T19:17:57.794Z,32.27
2018-11-23T19:20:27.614Z,32.57
2018-11-23T19:22:57.033Z,32.80
2018-11-23T19:25:26.138Z,33.77
2018-11-23T19:27:55.377Z,34.80
2018-11-23T19:30:28.566Z,36.67
2018-11-23T19:32:55.904Z,36.60
2018-11-23T19:35:24.967Z,57.87
2018-11-23T19:37:55.242Z,53.90
2018-11-23T19:40:24.527Z,44.20
2018-11-23T19:42:53.599Z,44.37
2018-11-23T19:45:22.766Z,40.73
2018-11-23T19:47:52.053Z,39.20
2018-11-23T19:50:21.199Z,39.00
2018-11-23T19:52:50.265Z,40.50
2018-11-23T19:55:19.421Z,40.43
2018-11-23T19:57:48.644Z,42.03
2018-11-23T20:00:26.563Z,40.27
2018-11-23T20:02:55.671Z,41.33
2018-11-23T20:05:24.782Z,42.40
2018-11-23T20:07:55.556Z,41.63
2018-11-23T20:10:25.379Z,42.07
2018-11-23T20:12:57.840Z,39.73
2018-11-23T20:15:27.025Z,38.83
2018-11-23T20:17:56.200Z,38.20
2018-11-23T20:20:25.483Z,38.20
2018-11-23T20:22:54.717Z,39.13
2018-11-23T20:25:23.919Z,38.53
2018-11-23T20:27:53.629Z,38.67
2018-11-23T20:30:22.923Z,39.53
2018-11-23T20:32:53.485Z,37.20
2018-11-23T20:35:23.281Z,44.27
2018-11-23T20:37:52.991Z,54.67
2018-11-23T20:40:23.199Z,45.23
2018-11-23T20:42:52.597Z,42.00
2018-11-23T20:45:22.485Z,42.70
2018-11-23T20:47:51.647Z,42.43
2018-11-23T20:50:21.135Z,39.40
2018-11-23T20:52:50.481Z,42.10
2018-11-23T20:55:21.976Z,39.33
2018-11-23T20:57:51.269Z,40.53
2018-11-23T21:00:21.389Z,38.40
2018-11-23T21:02:51.775Z,38.63
2018-11-23T21:05:21.818Z,37.67
2018-11-23T21:07:51.540Z,39.63
2018-11-23T21:10:23.371Z,42.57
2018-11-23T21:12:52.995Z,39.87
2018-11-23T21:15:28.516Z,43.90
2018-11-23T21:18:01.553Z,40.63
2018-11-23T21:20:30.156Z,39.70
2018-11-23T21:23:03.221Z,38.30
2018-11-23T21:25:33.127Z,38.27
2018-11-23T21:28:02.786Z,35.80
2018-11-23T21:30:32.207Z,37.57
2018-11-23T21:33:02.198Z,38.40
2018-11-23T21:35:31.695Z,39.63
2018-11-23T21:38:01.235Z,37.40
2018-11-23T21:40:30.763Z,37.73
2018-11-23T21:43:00.128Z,53.60
2018-11-23T21:45:29.494Z,82.73
2018-11-23T21:47:59.224Z,52.00
2018-11-23T21:50:28.576Z,41.80
2018-11-23T21:53:02.892Z,38.83
2018-11-23T21:55:32.185Z,43.10
2018-11-23T21:58:02.529Z,43.07
2018-11-23T22:00:31.669Z,41.00
2018-11-23T22:03:00.864Z,44.03
2018-11-23T22:05:30.344Z,40.13
2018-11-23T22:07:59.984Z,39.87
2018-11-23T22:10:29.161Z,37.90
2018-11-23T22:12:58.343Z,35.87
2018-11-23T22:15:27.491Z,38.77
2018-11-23T22:17:57.480Z,42.97
2018-11-23T22:20:27.075Z,44.63
2018-11-23T22:22:56.456Z,46.07
2018-11-23T22:25:25.676Z,40.97
2018-11-23T22:27:54.773Z,40.43
2018-11-23T22:30:31.352Z,37.47
2018-11-23T22:33:01.032Z,39.57
2018-11-23T22:35:31.342Z,37.63
2018-11-23T22:38:00.487Z,36.93
2018-11-23T22:40:30.843Z,38.57
2018-11-23T22:43:00.199Z,35.40
2018-11-23T22:45:29.361Z,35.80
2018-11-23T22:47:58.701Z,36.07
2018-11-23T22:50:27.910Z,35.10
2018-11-23T22:52:58.134Z,35.50
2018-11-23T22:55:27.309Z,35.80
2018-11-23T22:57:56.508Z,35.93
2018-11-23T23:00:32.279Z,34.93
2018-11-23T23:03:01.481Z,34.10
2018-11-23T23:05:30.774Z,34.43
2018-11-23T23:07:59.857Z,34.80
2018-11-23T23:10:29.076Z,34.47
2018-11-23T23:12:58.399Z,33.50
2018-11-23T23:15:27.674Z,32.77
2018-11-23T23:17:56.829Z,32.57
2018-11-23T23:20:25.968Z,36.90
2018-11-23T23:22:55.272Z,33.73
2018-11-23T23:25:24.581Z,32.73
2018-11-23T23:27:53.845Z,34.90
2018-11-23T23:30:23.140Z,34.77
2018-11-23T23:32:52.389Z,33.80
2018-11-23T23:35:21.420Z,33.90
2018-11-23T23:37:50.460Z,34.57
2018-11-23T23:40:19.782Z,36.77
2018-11-23T23:42:49.434Z,35.83
2018-11-23T23:45:19.337Z,34.60
2018-11-23T23:47:48.504Z,36.07
2018-11-23T23:50:21.543Z,33.03
2018-11-23T23:52:51.754Z,35.77
2018-11-23T23:55:20.997Z,33.63
2018-11-23T23:57:50.135Z,35.43
